sensor_id;sensor_type;location;lat;lon;timestamp;temperature;humidity
5344;DHT22;2694;48.954;8.928;2023-06-26T00:00:27;17.90;99.90
5344;DHT22;2694;48.954;8.928;2023-06-26T00:02:54;17.90;99.90
5344;DHT22;2694;48.954;8.928;2023-06-26T00:05:20;17.70;99.90
5344;DHT22;2694;48.954;8.928;2023-06-26T00:07:47;17.80;99.90
5344;DHT22;2694;48.954;8.928;2023-06-26T00:10:14;17.70;99.90
5344;DHT22;2694;48.954;8.928;2023-06-26T00:12:43;17.70;99.90
5344;DHT22;2694;48.954;8.928;2023-06-26T00:15:10;17.80;99.90
5344;DHT22;2694;48.954;8.928;2023-06-26T00:17:37;17.80;99.90
5344;DHT22;2694;48.954;8.928;2023-06-26T00:20:05;17.80;99.90
5344;DHT22;2694;48.954;8.928;2023-06-26T00:22:32;17.80;99.90
5344;DHT22;2694;48.954;8.928;2023-06-26T00:24:59;17.90;99.90
5344;DHT22;2694;48.954;8.928;2023-06-26T00:27:26;17.80;99.90
5344;DHT22;2694;48.954;8.928;2023-06-26T00:29:54;16.30;99.90
5344;DHT22;2694;48.954;8.928;2023-06-26T00:32:21;17.50;99.90
5344;DHT22;2694;48.954;8.928;2023-06-26T00:34:48;17.50;99.90
5344;DHT22;2694;48.954;8.928;2023-06-26T00:37:15;17.30;99.90
5344;DHT22;2694;48.954;8.928;2023-06-26T00:39:42;17.30;99.90
5344;DHT22;2694;48.954;8.928;2023-06-26T00:42:09;17.40;99.90
5344;DHT22;2694;48.954;8.928;2023-06-26T00:44:36;17.50;99.90
5344;DHT22;2694;48.954;8.928;2023-06-26T00:47:05;17.50;99.90
5344;DHT22;2694;48.954;8.928;2023-06-26T00:49:32;17.50;99.90
5344;DHT22;2694;48.954;8.928;2023-06-26T00:51:59;17.50;99.90
5344;DHT22;2694;48.954;8.928;2023-06-26T00:54:26;17.50;99.90
5344;DHT22;2694;48.954;8.928;2023-06-26T00:56:53;17.50;99.90
5344;DHT22;2694;48.954;8.928;2023-06-26T00:59:20;17.40;99.90
5344;DHT22;2694;48.954;8.928;2023-06-26T01:01:47;17.20;99.90
5344;DHT22;2694;48.954;8.928;2023-06-26T01:04:16;17.10;99.90
5344;DHT22;2694;48.954;8.928;2023-06-26T01:06:46;17.10;99.90
5344;DHT22;2694;48.954;8.928;2023-06-26T01:09:16;14.70;99.90
5344;DHT22;2694;48.954;8.928;2023-06-26T01:11:44;16.80;99.90
5344;DHT22;2694;48.954;8.928;2023-06-26T01:14:11;16.70;99.90
5344;DHT22;2694;48.954;8.928;2023-06-26T01:16:38;16.60;99.90
5344;DHT22;2694;48.954;8.928;2023-06-26T01:19:10;16.50;99.90
5344;DHT22;2694;48.954;8.928;2023-06-26T01:21:43;16.50;99.90
5344;DHT22;2694;48.954;8.928;2023-06-26T01:24:16;16.50;99.90
5344;DHT22;2694;48.954;8.928;2023-06-26T01:26:49;16.40;99.90
5344;DHT22;2694;48.954;8.928;2023-06-26T01:29:18;16.50;99.90
5344;DHT22;2694;48.954;8.928;2023-06-26T01:31:47;16.40;99.90
5344;DHT22;2694;48.954;8.928;2023-06-26T01:34:15;16.40;99.90
5344;DHT22;2694;48.954;8.928;2023-06-26T01:36:44;16.50;99.90
5344;DHT22;2694;48.954;8.928;2023-06-26T01:39:14;16.50;99.90
5344;DHT22;2694;48.954;8.928;2023-06-26T01:41:41;16.50;99.90
5344;DHT22;2694;48.954;8.928;2023-06-26T01:44:17;16.50;99.90
5344;DHT22;2694;48.954;8.928;2023-06-26T01:46:54;16.50;99.90
5344;DHT22;2694;48.954;8.928;2023-06-26T01:49:27;16.50;99.90
5344;DHT22;2694;48.954;8.928;2023-06-26T01:52:06;16.50;99.90
5344;DHT22;2694;48.954;8.928;2023-06-26T01:54:39;16.40;99.90
5344;DHT22;2694;48.954;8.928;2023-06-26T01:57:08;16.40;99.90
5344;DHT22;2694;48.954;8.928;2023-06-26T01:59:39;16.20;99.90
5344;DHT22;2694;48.954;8.928;2023-06-26T02:02:09;16.10;99.90
5344;DHT22;2694;48.954;8.928;2023-06-26T02:04:36;16.00;99.90
5344;DHT22;2694;48.954;8.928;2023-06-26T02:07:03;15.90;99.90
5344;DHT22;2694;48.954;8.928;2023-06-26T02:09:30;15.80;99.90
5344;DHT22;2694;48.954;8.928;2023-06-26T02:11:57;15.80;99.90
5344;DHT22;2694;48.954;8.928;2023-06-26T02:14:24;15.70;99.90
5344;DHT22;2694;48.954;8.928;2023-06-26T02:16:52;15.70;99.90
5344;DHT22;2694;48.954;8.928;2023-06-26T02:19:19;15.70;99.90
5344;DHT22;2694;48.954;8.928;2023-06-26T02:21:47;15.70;99.90
5344;DHT22;2694;48.954;8.928;2023-06-26T02:24:14;15.80;99.90
5344;DHT22;2694;48.954;8.928;2023-06-26T02:26:41;15.80;99.90
5344;DHT22;2694;48.954;8.928;2023-06-26T02:29:08;15.90;99.90
5344;DHT22;2694;48.954;8.928;2023-06-26T02:31:35;15.90;99.90
5344;DHT22;2694;48.954;8.928;2023-06-26T02:34:04;15.70;99.90
5344;DHT22;2694;48.954;8.928;2023-06-26T02:36:31;14.90;99.90
5344;DHT22;2694;48.954;8.928;2023-06-26T02:38:57;15.70;99.90
5344;DHT22;2694;48.954;8.928;2023-06-26T02:41:24;15.60;99.90
5344;DHT22;2694;48.954;8.928;2023-06-26T02:43:51;15.50;99.90
5344;DHT22;2694;48.954;8.928;2023-06-26T02:46:18;15.40;99.90
5344;DHT22;2694;48.954;8.928;2023-06-26T02:48:45;15.40;99.90
5344;DHT22;2694;48.954;8.928;2023-06-26T02:51:13;15.30;99.90
5344;DHT22;2694;48.954;8.928;2023-06-26T02:53:40;15.30;99.90
5344;DHT22;2694;48.954;8.928;2023-06-26T02:56:07;15.20;99.90
5344;DHT22;2694;48.954;8.928;2023-06-26T02:58:34;15.30;99.90
5344;DHT22;2694;48.954;8.928;2023-06-26T03:01:01;15.20;99.90
5344;DHT22;2694;48.954;8.928;2023-06-26T03:03:28;15.20;99.90
5344;DHT22;2694;48.954;8.928;2023-06-26T03:05:55;15.20;99.90
5344;DHT22;2694;48.954;8.928;2023-06-26T03:08:23;15.20;99.90
5344;DHT22;2694;48.954;8.928;2023-06-26T03:10:50;15.20;99.90
5344;DHT22;2694;48.954;8.928;2023-06-26T03:13:17;15.90;99.90
5344;DHT22;2694;48.954;8.928;2023-06-26T03:15:44;15.20;99.90
5344;DHT22;2694;48.954;8.928;2023-06-26T03:18:11;15.30;99.90
5344;DHT22;2694;48.954;8.928;2023-06-26T03:20:38;15.40;99.90
5344;DHT22;2694;48.954;8.928;2023-06-26T03:23:05;15.30;99.90
5344;DHT22;2694;48.954;8.928;2023-06-26T03:25:33;15.30;99.90
5344;DHT22;2694;48.954;8.928;2023-06-26T03:28:00;15.30;99.90
5344;DHT22;2694;48.954;8.928;2023-06-26T03:30:27;15.10;99.90
5344;DHT22;2694;48.954;8.928;2023-06-26T03:32:54;15.10;99.90
5344;DHT22;2694;48.954;8.928;2023-06-26T03:35:21;15.00;99.90
5344;DHT22;2694;48.954;8.928;2023-06-26T03:37:49;15.00;99.90
5344;DHT22;2694;48.954;8.928;2023-06-26T03:40:16;15.00;99.90
5344;DHT22;2694;48.954;8.928;2023-06-26T03:42:44;15.00;99.90
5344;DHT22;2694;48.954;8.928;2023-06-26T03:45:11;15.10;99.90
5344;DHT22;2694;48.954;8.928;2023-06-26T03:47:38;15.10;99.90
5344;DHT22;2694;48.954;8.928;2023-06-26T03:50:06;15.10;99.90
5344;DHT22;2694;48.954;8.928;2023-06-26T03:52:33;15.10;99.90
5344;DHT22;2694;48.954;8.928;2023-06-26T03:55:00;15.20;99.90
5344;DHT22;2694;48.954;8.928;2023-06-26T03:57:27;15.20;99.90
5344;DHT22;2694;48.954;8.928;2023-06-26T03:59:55;15.20;99.90
5344;DHT22;2694;48.954;8.928;2023-06-26T04:02:22;15.30;99.90
5344;DHT22;2694;48.954;8.928;2023-06-26T04:04:49;15.30;99.90
5344;DHT22;2694;48.954;8.928;2023-06-26T04:07:17;15.40;99.90
5344;DHT22;2694;48.954;8.928;2023-06-26T04:09:44;15.40;99.90
5344;DHT22;2694;48.954;8.928;2023-06-26T04:12:11;15.40;99.90
5344;DHT22;2694;48.954;8.928;2023-06-26T04:14:38;15.50;99.90
5344;DHT22;2694;48.954;8.928;2023-06-26T04:17:06;15.60;99.90
5344;DHT22;2694;48.954;8.928;2023-06-26T04:19:33;15.80;99.90
5344;DHT22;2694;48.954;8.928;2023-06-26T04:22:01;15.90;99.90
5344;DHT22;2694;48.954;8.928;2023-06-26T04:24:28;16.10;99.90
5344;DHT22;2694;48.954;8.928;2023-06-26T04:26:55;16.20;99.90
5344;DHT22;2694;48.954;8.928;2023-06-26T04:29:22;16.50;99.90
5344;DHT22;2694;48.954;8.928;2023-06-26T04:31:51;16.70;99.90
5344;DHT22;2694;48.954;8.928;2023-06-26T04:34:19;16.90;99.90
5344;DHT22;2694;48.954;8.928;2023-06-26T04:36:46;17.00;99.90
5344;DHT22;2694;48.954;8.928;2023-06-26T04:39:13;17.20;99.90
5344;DHT22;2694;48.954;8.928;2023-06-26T04:41:41;17.40;99.90
5344;DHT22;2694;48.954;8.928;2023-06-26T04:44:08;17.60;99.90
5344;DHT22;2694;48.954;8.928;2023-06-26T04:46:36;17.60;99.90
5344;DHT22;2694;48.954;8.928;2023-06-26T04:49:03;17.70;99.90
5344;DHT22;2694;48.954;8.928;2023-06-26T04:51:31;17.90;99.90
5344;DHT22;2694;48.954;8.928;2023-06-26T04:53:58;18.10;99.90
5344;DHT22;2694;48.954;8.928;2023-06-26T04:56:25;18.20;99.90
5344;DHT22;2694;48.954;8.928;2023-06-26T04:58:52;18.30;99.90
5344;DHT22;2694;48.954;8.928;2023-06-26T05:01:19;18.60;99.90
5344;DHT22;2694;48.954;8.928;2023-06-26T05:03:46;18.70;99.90
5344;DHT22;2694;48.954;8.928;2023-06-26T05:06:13;18.80;99.90
5344;DHT22;2694;48.954;8.928;2023-06-26T05:08:41;18.80;99.90
5344;DHT22;2694;48.954;8.928;2023-06-26T05:11:08;18.80;99.90
5344;DHT22;2694;48.954;8.928;2023-06-26T05:13:35;18.90;99.90
5344;DHT22;2694;48.954;8.928;2023-06-26T05:16:02;18.90;99.90
5344;DHT22;2694;48.954;8.928;2023-06-26T05:18:29;19.20;99.90
5344;DHT22;2694;48.954;8.928;2023-06-26T05:20:57;19.20;99.90
5344;DHT22;2694;48.954;8.928;2023-06-26T05:23:25;19.40;99.90
5344;DHT22;2694;48.954;8.928;2023-06-26T05:25:54;19.40;99.90
5344;DHT22;2694;48.954;8.928;2023-06-26T05:28:22;19.60;99.90
5344;DHT22;2694;48.954;8.928;2023-06-26T05:30:50;19.80;99.90
5344;DHT22;2694;48.954;8.928;2023-06-26T05:33:18;19.90;99.90
5344;DHT22;2694;48.954;8.928;2023-06-26T05:35:46;20.20;99.90
5344;DHT22;2694;48.954;8.928;2023-06-26T05:38:13;20.20;99.90
5344;DHT22;2694;48.954;8.928;2023-06-26T05:40:41;20.30;99.90
5344;DHT22;2694;48.954;8.928;2023-06-26T05:43:10;20.70;99.90
5344;DHT22;2694;48.954;8.928;2023-06-26T05:45:37;20.90;99.90
5344;DHT22;2694;48.954;8.928;2023-06-26T05:48:04;21.10;99.90
5344;DHT22;2694;48.954;8.928;2023-06-26T05:50:32;21.30;99.90
5344;DHT22;2694;48.954;8.928;2023-06-26T05:53:00;21.60;99.90
5344;DHT22;2694;48.954;8.928;2023-06-26T05:55:29;21.80;99.90
5344;DHT22;2694;48.954;8.928;2023-06-26T05:57:58;22.00;99.90
5344;DHT22;2694;48.954;8.928;2023-06-26T06:00:29;22.00;99.90
5344;DHT22;2694;48.954;8.928;2023-06-26T06:02:56;22.10;99.90
5344;DHT22;2694;48.954;8.928;2023-06-26T06:05:23;22.20;99.90
5344;DHT22;2694;48.954;8.928;2023-06-26T06:07:50;22.20;99.90
5344;DHT22;2694;48.954;8.928;2023-06-26T06:10:17;22.20;99.90
5344;DHT22;2694;48.954;8.928;2023-06-26T06:12:44;22.30;99.90
5344;DHT22;2694;48.954;8.928;2023-06-26T06:15:10;22.50;99.90
5344;DHT22;2694;48.954;8.928;2023-06-26T06:17:39;22.70;99.90
5344;DHT22;2694;48.954;8.928;2023-06-26T06:20:06;22.90;99.90
5344;DHT22;2694;48.954;8.928;2023-06-26T06:22:33;23.10;99.90
5344;DHT22;2694;48.954;8.928;2023-06-26T06:25:00;23.40;99.90
5344;DHT22;2694;48.954;8.928;2023-06-26T06:27:27;23.50;99.90
5344;DHT22;2694;48.954;8.928;2023-06-26T06:29:54;23.50;99.90
5344;DHT22;2694;48.954;8.928;2023-06-26T06:32:21;23.60;99.90
5344;DHT22;2694;48.954;8.928;2023-06-26T06:34:49;23.80;99.90
5344;DHT22;2694;48.954;8.928;2023-06-26T06:37:16;24.00;99.90
5344;DHT22;2694;48.954;8.928;2023-06-26T06:39:43;24.20;99.90
5344;DHT22;2694;48.954;8.928;2023-06-26T06:42:10;24.50;99.90
5344;DHT22;2694;48.954;8.928;2023-06-26T06:44:37;24.70;99.90
5344;DHT22;2694;48.954;8.928;2023-06-26T06:47:04;24.90;99.60
5344;DHT22;2694;48.954;8.928;2023-06-26T06:49:31;24.80;99.30
5344;DHT22;2694;48.954;8.928;2023-06-26T06:51:59;24.80;99.50
5344;DHT22;2694;48.954;8.928;2023-06-26T06:54:26;24.90;99.00
5344;DHT22;2694;48.954;8.928;2023-06-26T06:56:54;24.90;99.90
5344;DHT22;2694;48.954;8.928;2023-06-26T06:59:21;25.10;99.60
5344;DHT22;2694;48.954;8.928;2023-06-26T07:01:47;25.30;98.90
5344;DHT22;2694;48.954;8.928;2023-06-26T07:04:14;25.40;98.20
5344;DHT22;2694;48.954;8.928;2023-06-26T07:06:41;25.30;98.40
5344;DHT22;2694;48.954;8.928;2023-06-26T07:09:10;25.40;98.80
5344;DHT22;2694;48.954;8.928;2023-06-26T07:11:37;25.70;98.80
5344;DHT22;2694;48.954;8.928;2023-06-26T07:14:04;26.10;97.90
5344;DHT22;2694;48.954;8.928;2023-06-26T07:16:31;26.30;97.20
5344;DHT22;2694;48.954;8.928;2023-06-26T07:18:58;26.60;96.80
5344;DHT22;2694;48.954;8.928;2023-06-26T07:21:25;26.70;96.30
5344;DHT22;2694;48.954;8.928;2023-06-26T07:23:52;26.70;95.50
5344;DHT22;2694;48.954;8.928;2023-06-26T07:26:20;26.80;94.80
5344;DHT22;2694;48.954;8.928;2023-06-26T07:28:48;26.80;94.70
5344;DHT22;2694;48.954;8.928;2023-06-26T07:31:15;27.00;94.30
5344;DHT22;2694;48.954;8.928;2023-06-26T07:33:43;27.20;94.20
5344;DHT22;2694;48.954;8.928;2023-06-26T07:36:10;27.40;94.10
5344;DHT22;2694;48.954;8.928;2023-06-26T07:38:37;27.70;92.70
5344;DHT22;2694;48.954;8.928;2023-06-26T07:41:04;27.80;93.00
5344;DHT22;2694;48.954;8.928;2023-06-26T07:43:32;27.90;93.50
5344;DHT22;2694;48.954;8.928;2023-06-26T07:45:59;27.70;93.60
5344;DHT22;2694;48.954;8.928;2023-06-26T07:48:26;27.80;93.50
5344;DHT22;2694;48.954;8.928;2023-06-26T07:50:53;27.80;93.30
5344;DHT22;2694;48.954;8.928;2023-06-26T07:53:20;27.90;93.60
5344;DHT22;2694;48.954;8.928;2023-06-26T07:55:47;28.00;93.10
5344;DHT22;2694;48.954;8.928;2023-06-26T07:58:14;28.10;93.20
5344;DHT22;2694;48.954;8.928;2023-06-26T08:00:42;28.20;93.30
5344;DHT22;2694;48.954;8.928;2023-06-26T08:03:09;28.30;93.00
5344;DHT22;2694;48.954;8.928;2023-06-26T08:05:36;28.40;92.70
5344;DHT22;2694;48.954;8.928;2023-06-26T08:08:03;28.50;92.70
5344;DHT22;2694;48.954;8.928;2023-06-26T08:10:30;28.60;93.40
5344;DHT22;2694;48.954;8.928;2023-06-26T08:12:57;28.80;92.90
5344;DHT22;2694;48.954;8.928;2023-06-26T08:15:24;29.10;93.00
5344;DHT22;2694;48.954;8.928;2023-06-26T08:17:52;29.40;92.40
5344;DHT22;2694;48.954;8.928;2023-06-26T08:20:19;29.80;91.70
5344;DHT22;2694;48.954;8.928;2023-06-26T08:22:46;30.00;90.40
5344;DHT22;2694;48.954;8.928;2023-06-26T08:25:14;29.90;90.00
5344;DHT22;2694;48.954;8.928;2023-06-26T08:27:42;29.70;89.50
5344;DHT22;2694;48.954;8.928;2023-06-26T08:30:10;29.50;89.00
5344;DHT22;2694;48.954;8.928;2023-06-26T08:32:38;29.40;88.70
5344;DHT22;2694;48.954;8.928;2023-06-26T08:35:07;29.50;88.90
5344;DHT22;2694;48.954;8.928;2023-06-26T08:37:36;29.80;89.20
5344;DHT22;2694;48.954;8.928;2023-06-26T08:40:06;29.90;88.90
5344;DHT22;2694;48.954;8.928;2023-06-26T08:42:33;30.00;86.40
5344;DHT22;2694;48.954;8.928;2023-06-26T08:45:02;30.00;87.60
5344;DHT22;2694;48.954;8.928;2023-06-26T08:47:30;30.20;86.00
5344;DHT22;2694;48.954;8.928;2023-06-26T08:50:04;30.40;85.60
5344;DHT22;2694;48.954;8.928;2023-06-26T08:52:37;30.40;84.70
5344;DHT22;2694;48.954;8.928;2023-06-26T08:55:08;30.40;84.10
5344;DHT22;2694;48.954;8.928;2023-06-26T08:57:36;30.40;83.80
5344;DHT22;2694;48.954;8.928;2023-06-26T09:00:04;30.40;83.90
5344;DHT22;2694;48.954;8.928;2023-06-26T09:02:34;30.30;84.40
5344;DHT22;2694;48.954;8.928;2023-06-26T09:05:02;30.50;84.30
5344;DHT22;2694;48.954;8.928;2023-06-26T09:07:29;30.50;83.60
5344;DHT22;2694;48.954;8.928;2023-06-26T09:09:58;30.50;83.10
5344;DHT22;2694;48.954;8.928;2023-06-26T09:12:26;30.60;84.30
5344;DHT22;2694;48.954;8.928;2023-06-26T09:14:54;30.50;83.80
5344;DHT22;2694;48.954;8.928;2023-06-26T09:17:24;30.40;84.20
5344;DHT22;2694;48.954;8.928;2023-06-26T09:19:52;30.30;85.60
5344;DHT22;2694;48.954;8.928;2023-06-26T09:22:19;30.40;85.20
5344;DHT22;2694;48.954;8.928;2023-06-26T09:24:47;30.30;85.10
5344;DHT22;2694;48.954;8.928;2023-06-26T09:27:15;30.10;85.90
5344;DHT22;2694;48.954;8.928;2023-06-26T09:29:45;30.40;84.80
5344;DHT22;2694;48.954;8.928;2023-06-26T09:32:13;30.40;85.00
5344;DHT22;2694;48.954;8.928;2023-06-26T09:34:42;30.40;85.50
5344;DHT22;2694;48.954;8.928;2023-06-26T09:37:12;30.20;84.60
5344;DHT22;2694;48.954;8.928;2023-06-26T09:39:39;30.40;85.40
5344;DHT22;2694;48.954;8.928;2023-06-26T09:42:06;30.50;84.20
5344;DHT22;2694;48.954;8.928;2023-06-26T09:44:35;30.30;84.80
5344;DHT22;2694;48.954;8.928;2023-06-26T09:47:02;30.40;84.50
5344;DHT22;2694;48.954;8.928;2023-06-26T09:49:29;30.70;85.30
5344;DHT22;2694;48.954;8.928;2023-06-26T09:52:00;30.70;84.60
5344;DHT22;2694;48.954;8.928;2023-06-26T09:54:28;30.10;86.30
5344;DHT22;2694;48.954;8.928;2023-06-26T09:57:07;29.80;86.00
5344;DHT22;2694;48.954;8.928;2023-06-26T09:59:36;29.60;84.90
5344;DHT22;2694;48.954;8.928;2023-06-26T10:02:04;29.50;84.70
5344;DHT22;2694;48.954;8.928;2023-06-26T10:04:31;29.60;85.10
5344;DHT22;2694;48.954;8.928;2023-06-26T10:06:58;29.50;85.50
5344;DHT22;2694;48.954;8.928;2023-06-26T10:09:28;29.60;85.60
5344;DHT22;2694;48.954;8.928;2023-06-26T10:11:57;29.70;86.90
5344;DHT22;2694;48.954;8.928;2023-06-26T10:14:27;29.70;87.10
5344;DHT22;2694;48.954;8.928;2023-06-26T10:17:02;29.70;87.60
5344;DHT22;2694;48.954;8.928;2023-06-26T10:19:31;29.70;87.90
5344;DHT22;2694;48.954;8.928;2023-06-26T10:21:58;29.40;89.00
5344;DHT22;2694;48.954;8.928;2023-06-26T10:24:29;29.40;90.20
5344;DHT22;2694;48.954;8.928;2023-06-26T10:27:03;30.00;89.80
5344;DHT22;2694;48.954;8.928;2023-06-26T10:29:33;30.20;89.30
5344;DHT22;2694;48.954;8.928;2023-06-26T10:32:03;30.30;90.00
5344;DHT22;2694;48.954;8.928;2023-06-26T10:34:31;30.40;89.20
5344;DHT22;2694;48.954;8.928;2023-06-26T10:37:02;30.40;89.50
5344;DHT22;2694;48.954;8.928;2023-06-26T10:39:46;30.70;89.90
5344;DHT22;2694;48.954;8.928;2023-06-26T10:42:15;30.30;90.00
5344;DHT22;2694;48.954;8.928;2023-06-26T10:44:42;30.10;90.00
5344;DHT22;2694;48.954;8.928;2023-06-26T10:47:11;30.10;90.20
5344;DHT22;2694;48.954;8.928;2023-06-26T10:49:40;30.00;90.60
5344;DHT22;2694;48.954;8.928;2023-06-26T10:52:13;30.00;90.40
5344;DHT22;2694;48.954;8.928;2023-06-26T10:54:40;30.10;90.60
5344;DHT22;2694;48.954;8.928;2023-06-26T10:57:07;30.10;91.10
5344;DHT22;2694;48.954;8.928;2023-06-26T10:59:34;29.80;91.00
5344;DHT22;2694;48.954;8.928;2023-06-26T11:02:05;29.40;91.70
5344;DHT22;2694;48.954;8.928;2023-06-26T11:04:38;29.30;91.60
5344;DHT22;2694;48.954;8.928;2023-06-26T11:07:16;29.70;91.90
5344;DHT22;2694;48.954;8.928;2023-06-26T11:09:57;29.90;91.30
5344;DHT22;2694;48.954;8.928;2023-06-26T11:12:37;30.00;91.30
5344;DHT22;2694;48.954;8.928;2023-06-26T11:15:07;29.90;91.40
5344;DHT22;2694;48.954;8.928;2023-06-26T11:17:35;29.80;91.10
5344;DHT22;2694;48.954;8.928;2023-06-26T11:20:05;29.80;91.50
5344;DHT22;2694;48.954;8.928;2023-06-26T11:22:35;30.90;91.70
5344;DHT22;2694;48.954;8.928;2023-06-26T11:25:03;30.00;91.60
5344;DHT22;2694;48.954;8.928;2023-06-26T11:27:32;29.70;91.90
5344;DHT22;2694;48.954;8.928;2023-06-26T11:29:59;29.70;91.90
5344;DHT22;2694;48.954;8.928;2023-06-26T11:32:26;29.80;92.30
5344;DHT22;2694;48.954;8.928;2023-06-26T11:34:54;29.80;92.30
5344;DHT22;2694;48.954;8.928;2023-06-26T11:37:22;29.80;92.20
5344;DHT22;2694;48.954;8.928;2023-06-26T11:39:49;29.70;92.30
5344;DHT22;2694;48.954;8.928;2023-06-26T11:42:17;29.70;92.50
5344;DHT22;2694;48.954;8.928;2023-06-26T11:44:44;29.70;92.50
5344;DHT22;2694;48.954;8.928;2023-06-26T11:47:14;29.70;92.60
5344;DHT22;2694;48.954;8.928;2023-06-26T11:49:42;29.70;93.10
5344;DHT22;2694;48.954;8.928;2023-06-26T11:52:09;29.90;92.90
5344;DHT22;2694;48.954;8.928;2023-06-26T11:54:38;30.10;92.60
5344;DHT22;2694;48.954;8.928;2023-06-26T11:57:05;29.70;92.70
5344;DHT22;2694;48.954;8.928;2023-06-26T11:59:34;29.60;93.10
5344;DHT22;2694;48.954;8.928;2023-06-26T12:02:05;29.60;92.80
5344;DHT22;2694;48.954;8.928;2023-06-26T12:04:32;29.40;92.90
5344;DHT22;2694;48.954;8.928;2023-06-26T12:07:01;29.40;93.20
5344;DHT22;2694;48.954;8.928;2023-06-26T12:09:29;29.50;93.30
5344;DHT22;2694;48.954;8.928;2023-06-26T12:12:01;29.70;93.20
5344;DHT22;2694;48.954;8.928;2023-06-26T12:14:28;29.60;92.70
5344;DHT22;2694;48.954;8.928;2023-06-26T12:16:55;29.70;93.40
5344;DHT22;2694;48.954;8.928;2023-06-26T12:19:26;29.90;92.50
5344;DHT22;2694;48.954;8.928;2023-06-26T12:21:53;30.10;92.00
5344;DHT22;2694;48.954;8.928;2023-06-26T12:24:23;30.20;92.00
5344;DHT22;2694;48.954;8.928;2023-06-26T12:26:52;29.90;91.90
5344;DHT22;2694;48.954;8.928;2023-06-26T12:29:31;29.60;92.40
5344;DHT22;2694;48.954;8.928;2023-06-26T12:31:59;29.60;92.10
5344;DHT22;2694;48.954;8.928;2023-06-26T12:34:28;29.60;92.00
5344;DHT22;2694;48.954;8.928;2023-06-26T12:37:00;30.00;92.00
5344;DHT22;2694;48.954;8.928;2023-06-26T12:39:27;29.90;91.50
5344;DHT22;2694;48.954;8.928;2023-06-26T12:41:56;29.70;91.00
5344;DHT22;2694;48.954;8.928;2023-06-26T12:44:28;29.70;91.30
5344;DHT22;2694;48.954;8.928;2023-06-26T12:46:56;29.70;91.40
5344;DHT22;2694;48.954;8.928;2023-06-26T12:49:31;29.80;90.70
5344;DHT22;2694;48.954;8.928;2023-06-26T12:51:59;29.80;90.00
5344;DHT22;2694;48.954;8.928;2023-06-26T12:54:26;29.80;89.70
5344;DHT22;2694;48.954;8.928;2023-06-26T12:56:53;29.50;89.30
5344;DHT22;2694;48.954;8.928;2023-06-26T12:59:20;29.40;89.20
5344;DHT22;2694;48.954;8.928;2023-06-26T13:01:49;29.60;87.50
5344;DHT22;2694;48.954;8.928;2023-06-26T13:04:16;29.40;86.70
5344;DHT22;2694;48.954;8.928;2023-06-26T13:06:43;29.50;88.30
5344;DHT22;2694;48.954;8.928;2023-06-26T13:09:10;29.70;88.30
5344;DHT22;2694;48.954;8.928;2023-06-26T13:11:37;29.80;85.10
5344;DHT22;2694;48.954;8.928;2023-06-26T13:14:04;29.70;84.00
5344;DHT22;2694;48.954;8.928;2023-06-26T13:16:31;29.60;84.00
5344;DHT22;2694;48.954;8.928;2023-06-26T13:19:00;29.60;85.10
5344;DHT22;2694;48.954;8.928;2023-06-26T13:21:28;29.80;83.40
5344;DHT22;2694;48.954;8.928;2023-06-26T13:23:55;29.90;83.70
5344;DHT22;2694;48.954;8.928;2023-06-26T13:26:23;29.70;80.90
5344;DHT22;2694;48.954;8.928;2023-06-26T13:28:51;29.60;80.60
5344;DHT22;2694;48.954;8.928;2023-06-26T13:31:18;29.50;80.70
5344;DHT22;2694;48.954;8.928;2023-06-26T13:33:46;29.30;80.90
5344;DHT22;2694;48.954;8.928;2023-06-26T13:36:16;29.40;82.40
5344;DHT22;2694;48.954;8.928;2023-06-26T13:38:43;29.50;81.10
5344;DHT22;2694;48.954;8.928;2023-06-26T13:41:10;29.50;81.50
5344;DHT22;2694;48.954;8.928;2023-06-26T13:43:37;29.70;83.20
5344;DHT22;2694;48.954;8.928;2023-06-26T13:46:04;29.80;82.00
5344;DHT22;2694;48.954;8.928;2023-06-26T13:48:31;29.80;82.00
5344;DHT22;2694;48.954;8.928;2023-06-26T13:50:58;29.80;81.30
5344;DHT22;2694;48.954;8.928;2023-06-26T13:53:26;29.70;81.10
5344;DHT22;2694;48.954;8.928;2023-06-26T13:55:53;29.50;82.10
5344;DHT22;2694;48.954;8.928;2023-06-26T13:58:20;29.70;82.00
5344;DHT22;2694;48.954;8.928;2023-06-26T14:00:48;29.80;81.20
5344;DHT22;2694;48.954;8.928;2023-06-26T14:03:15;29.70;80.90
5344;DHT22;2694;48.954;8.928;2023-06-26T14:05:43;29.60;80.10
5344;DHT22;2694;48.954;8.928;2023-06-26T14:08:10;29.50;81.80
5344;DHT22;2694;48.954;8.928;2023-06-26T14:10:38;29.60;80.90
5344;DHT22;2694;48.954;8.928;2023-06-26T14:13:05;29.60;80.40
5344;DHT22;2694;48.954;8.928;2023-06-26T14:15:34;29.50;80.50
5344;DHT22;2694;48.954;8.928;2023-06-26T14:18:02;29.40;81.40
5344;DHT22;2694;48.954;8.928;2023-06-26T14:20:29;29.50;82.10
5344;DHT22;2694;48.954;8.928;2023-06-26T14:22:58;29.60;81.10
5344;DHT22;2694;48.954;8.928;2023-06-26T14:25:25;29.70;80.10
5344;DHT22;2694;48.954;8.928;2023-06-26T14:27:55;29.60;80.10
5344;DHT22;2694;48.954;8.928;2023-06-26T14:30:22;29.50;79.90
5344;DHT22;2694;48.954;8.928;2023-06-26T14:32:49;29.60;80.20
5344;DHT22;2694;48.954;8.928;2023-06-26T14:35:16;29.60;79.70
5344;DHT22;2694;48.954;8.928;2023-06-26T14:37:43;29.50;78.50
5344;DHT22;2694;48.954;8.928;2023-06-26T14:40:11;29.50;79.60
5344;DHT22;2694;48.954;8.928;2023-06-26T14:42:38;29.60;79.40
5344;DHT22;2694;48.954;8.928;2023-06-26T14:45:08;29.60;78.10
5344;DHT22;2694;48.954;8.928;2023-06-26T14:47:35;29.50;78.50
5344;DHT22;2694;48.954;8.928;2023-06-26T14:50:02;29.40;79.50
5344;DHT22;2694;48.954;8.928;2023-06-26T14:52:29;29.60;78.30
5344;DHT22;2694;48.954;8.928;2023-06-26T14:54:56;29.70;77.60
5344;DHT22;2694;48.954;8.928;2023-06-26T14:57:22;29.70;79.00
5344;DHT22;2694;48.954;8.928;2023-06-26T14:59:49;29.80;78.20
5344;DHT22;2694;48.954;8.928;2023-06-26T15:02:18;29.40;78.40
5344;DHT22;2694;48.954;8.928;2023-06-26T15:04:45;29.20;79.60
5344;DHT22;2694;48.954;8.928;2023-06-26T15:07:12;28.90;78.80
5344;DHT22;2694;48.954;8.928;2023-06-26T15:09:39;28.90;80.10
5344;DHT22;2694;48.954;8.928;2023-06-26T15:12:07;28.80;80.60
5344;DHT22;2694;48.954;8.928;2023-06-26T15:14:34;28.80;80.00
5344;DHT22;2694;48.954;8.928;2023-06-26T15:17:01;28.70;79.40
5344;DHT22;2694;48.954;8.928;2023-06-26T15:19:29;28.70;79.00
5344;DHT22;2694;48.954;8.928;2023-06-26T15:21:56;28.80;79.30
5344;DHT22;2694;48.954;8.928;2023-06-26T15:24:23;28.70;80.00
5344;DHT22;2694;48.954;8.928;2023-06-26T15:26:50;28.50;80.40
5344;DHT22;2694;48.954;8.928;2023-06-26T15:29:17;28.40;80.80
5344;DHT22;2694;48.954;8.928;2023-06-26T15:31:44;28.30;81.00
5344;DHT22;2694;48.954;8.928;2023-06-26T15:34:11;28.20;80.50
5344;DHT22;2694;48.954;8.928;2023-06-26T15:36:40;28.20;80.30
5344;DHT22;2694;48.954;8.928;2023-06-26T15:39:07;28.20;78.70
5344;DHT22;2694;48.954;8.928;2023-06-26T15:41:34;28.10;79.00
5344;DHT22;2694;48.954;8.928;2023-06-26T15:44:02;28.20;78.20
5344;DHT22;2694;48.954;8.928;2023-06-26T15:46:29;28.20;77.00
5344;DHT22;2694;48.954;8.928;2023-06-26T15:48:56;28.10;76.90
5344;DHT22;2694;48.954;8.928;2023-06-26T15:51:23;28.10;76.70
5344;DHT22;2694;48.954;8.928;2023-06-26T15:53:52;28.30;76.50
5344;DHT22;2694;48.954;8.928;2023-06-26T15:56:19;28.50;76.40
5344;DHT22;2694;48.954;8.928;2023-06-26T15:58:46;28.40;76.20
5344;DHT22;2694;48.954;8.928;2023-06-26T16:01:14;28.10;76.60
5344;DHT22;2694;48.954;8.928;2023-06-26T16:03:41;28.20;75.80
5344;DHT22;2694;48.954;8.928;2023-06-26T16:06:09;28.10;75.60